LEMG/AGP METAR and TAF weather

Enter ICAO airport designator
Station Type Date Time Source
LEMG METAR 2020/05/29 18:30 UTC NOAA

LEMG 291830Z 12006KT 080V160 CAVOK 22/12 Q1013 NOSIG


Station Type Date Time Source
LEMG Decoded METAR 2020/05/29 18:30 UTC NOAA

Malaga / Aeropuerto, Spain (LEMG) 36-40N 004-29W 7M
May 29, 2020 - 02:30 PM EDT / 2020.05.29 1830 UTC
Wind: from the ESE (120 degrees) at 7 MPH (6 KT) (direction variable):0
Visibility: greater than 7 mile(s):0
Temperature: 71 F (22 C)
Dew Point: 53 F (12 C)
Relative Humidity: 53%
Pressure (altimeter): 29.91 in. Hg (1013 hPa)
ob: LEMG 291830Z 12006KT 080V160 CAVOK 22/12 Q1013 NOSIG
cycle: 18

Station Type Date Time Source
LEMG TAF 2020/05/29 18:27 UTC NOAA

TAF LEMG 291700Z 2918/3018 15006KT CAVOK TX26/3013Z TN17/3005Z
BECMG 2921/2923 29006KT
BECMG 3007/3009 13008KT

Example: see airport list